createdAt,value
2022-10-12T00:02:15.142Z,99858.84
2022-10-12T00:07:06.890Z,99850.09
2022-10-12T00:11:58.466Z,99844.66
2022-10-12T00:16:50.099Z,99840.50
2022-10-12T00:21:41.879Z,99832.59
2022-10-12T00:26:34.009Z,99836.94
2022-10-12T00:31:27.113Z,99842.16
2022-10-12T00:36:24.616Z,99821.34
2022-10-12T00:41:18.353Z,99819.25
2022-10-12T00:46:23.017Z,99819.88
2022-10-12T00:51:16.995Z,99811.16
2022-10-12T00:56:15.589Z,99812.38
2022-10-12T01:01:07.990Z,99816.75
2022-10-12T01:06:00.362Z,99798.84
2022-10-12T01:10:51.985Z,99799.50
2022-10-12T01:15:59.000Z,99790.72
2022-10-12T01:21:14.509Z,99788.84
2022-10-12T01:26:37.114Z,99776.78
2022-10-12T01:31:49.590Z,99772.63
2022-10-12T01:36:58.378Z,99774.06
2022-10-12T01:41:55.582Z,99761.56
2022-10-12T01:46:47.414Z,99748.66
2022-10-12T01:52:06.545Z,99750.94
2022-10-12T01:57:05.777Z,99748.88
2022-10-12T02:02:04.380Z,99735.13
2022-10-12T02:07:06.613Z,99723.06
2022-10-12T02:12:05.235Z,99714.97
2022-10-12T02:17:00.575Z,99707.50
2022-10-12T02:21:56.091Z,99712.69
2022-10-12T02:26:50.738Z,99705.00
2022-10-12T02:31:53.979Z,99698.31
2022-10-12T02:37:11.441Z,99690.22
2022-10-12T02:42:10.115Z,99693.13
2022-10-12T02:47:04.522Z,99687.09
2022-10-12T02:51:57.579Z,99672.31
2022-10-12T02:56:49.462Z,99671.91
2022-10-12T03:01:41.843Z,99664.63
2022-10-12T03:06:33.561Z,99668.13
2022-10-12T03:11:25.565Z,99653.59
2022-10-12T03:16:17.144Z,99640.06
2022-10-12T03:21:09.557Z,99656.28
2022-10-12T03:26:01.537Z,99653.19
2022-10-12T03:30:53.338Z,99646.94
2022-10-12T03:35:45.535Z,99649.44
2022-10-12T03:40:38.425Z,99644.66
2022-10-12T03:45:30.073Z,99640.25
2022-10-12T03:50:22.332Z,99624.91
2022-10-12T03:55:14.633Z,99622.59
2022-10-12T04:00:07.119Z,99612.22
2022-10-12T04:04:58.769Z,99615.53
2022-10-12T04:09:50.591Z,99616.56
2022-10-12T04:14:42.296Z,99617.00
2022-10-12T04:19:33.917Z,99624.25
2022-10-12T04:24:25.537Z,99628.22
2022-10-12T04:29:17.374Z,99623.22
2022-10-12T04:34:10.210Z,99619.47
2022-10-12T04:39:01.786Z,99604.91
2022-10-12T04:43:53.837Z,99600.13
2022-10-12T04:48:45.497Z,99599.06
2022-10-12T04:53:37.148Z,99596.81
2022-10-12T04:58:28.748Z,99587.22
2022-10-12T05:03:20.553Z,99587.63
2022-10-12T05:08:13.084Z,99587.03
2022-10-12T05:13:04.846Z,99569.13
2022-10-12T05:17:56.734Z,99561.88
2022-10-12T05:22:48.529Z,99570.59
2022-10-12T05:27:40.485Z,99579.97
2022-10-12T05:32:32.489Z,99565.59
2022-10-12T05:37:24.245Z,99565.19
2022-10-12T05:42:16.646Z,99566.63
2022-10-12T05:47:08.289Z,99586.19
2022-10-12T05:51:59.888Z,99574.13
2022-10-12T05:56:51.663Z,99566.81
2022-10-12T06:01:43.619Z,99571.19
2022-10-12T06:06:35.301Z,99562.06
2022-10-12T06:11:28.606Z,99571.38
2022-10-12T06:16:23.063Z,99552.03
2022-10-12T06:21:32.408Z,99540.41
2022-10-12T06:26:25.557Z,99538.72
2022-10-12T06:31:17.122Z,99542.88
2022-10-12T06:36:08.824Z,99533.72
2022-10-12T06:41:00.568Z,99524.13
2022-10-12T06:45:52.318Z,99509.53
2022-10-12T06:50:43.958Z,99504.13
2022-10-12T06:55:38.977Z,99507.44
2022-10-12T07:00:30.636Z,99497.22
2022-10-12T07:05:23.666Z,99487.03
2022-10-12T07:10:15.478Z,99489.53
2022-10-12T07:15:08.035Z,99491.19
2022-10-12T07:19:59.912Z,99484.50
2022-10-12T07:24:51.570Z,99488.25
2022-10-12T07:29:43.181Z,99488.25
2022-10-12T07:34:35.199Z,99486.63
2022-10-12T07:39:27.040Z,99501.56
2022-10-12T07:44:53.146Z,99493.66
2022-10-12T07:49:44.703Z,99500.50
2022-10-12T07:54:36.284Z,99500.06
2022-10-12T07:59:28.341Z,99510.44
2022-10-12T08:04:20.070Z,99516.03
2022-10-12T08:09:11.740Z,99515.59
2022-10-12T08:14:03.325Z,99510.78
2022-10-12T08:18:54.952Z,99513.00
2022-10-12T08:23:47.217Z,99513.59
2022-10-12T08:28:39.215Z,99512.09
2022-10-12T08:33:31.115Z,99517.69
2022-10-12T08:38:22.673Z,99526.59
2022-10-12T08:43:14.247Z,99515.72
2022-10-12T08:48:08.756Z,99515.66
2022-10-12T08:53:35.448Z,99517.44
2022-10-12T08:58:33.310Z,99514.44
2022-10-12T09:04:00.009Z,99501.44
2022-10-12T09:09:12.463Z,99500.53
2022-10-12T09:14:30.900Z,99496.47
2022-10-12T09:19:45.208Z,99513.66
2022-10-12T09:24:39.361Z,99515.81
2022-10-12T09:29:32.032Z,99490.47
2022-10-12T09:34:24.402Z,99488.41
2022-10-12T09:39:20.449Z,99482.97
2022-10-12T09:44:40.436Z,99470.34
2022-10-12T09:49:47.041Z,99490.59
2022-10-12T09:54:48.237Z,99492.44
2022-10-12T09:59:44.466Z,99477.59
2022-10-12T10:04:36.498Z,99480.81
2022-10-12T10:09:33.823Z,99484.50
2022-10-12T10:14:25.719Z,99483.63
2022-10-12T10:19:20.140Z,99493.13
2022-10-12T10:24:23.857Z,99469.72
2022-10-12T10:29:30.134Z,99457.78
2022-10-12T10:34:24.214Z,99455.19
2022-10-12T10:39:20.705Z,99460.00
2022-10-12T10:44:33.678Z,99452.03
2022-10-12T10:50:08.461Z,99450.22
2022-10-12T10:55:20.644Z,99421.19
2022-10-12T11:05:38.067Z,99430.94
2022-10-12T11:10:35.831Z,99424.16
2022-10-12T11:15:38.494Z,99425.59
2022-10-12T11:20:42.330Z,99420.66
2022-10-12T11:25:51.178Z,99431.88
2022-10-12T11:30:50.544Z,99429.25
2022-10-12T11:35:45.670Z,99431.22
2022-10-12T11:41:05.656Z,99433.47
2022-10-12T11:46:06.086Z,99437.78
2022-10-12T11:51:03.883Z,99432.69
2022-10-12T11:56:47.317Z,99432.50
2022-10-12T12:02:10.306Z,99433.19
2022-10-12T12:07:23.529Z,99417.06
2022-10-12T12:12:20.008Z,99419.28
2022-10-12T12:17:28.002Z,99417.69
2022-10-12T12:22:24.034Z,99410.19
2022-10-12T12:27:23.053Z,99408.38
2022-10-12T12:32:14.844Z,99395.50
2022-10-12T12:37:13.053Z,99392.91
2022-10-12T12:42:08.482Z,99385.16
2022-10-12T12:47:00.134Z,99377.16
2022-10-12T12:51:54.966Z,99385.81
2022-10-12T12:57:03.357Z,99377.47
2022-10-12T13:02:34.623Z,99384.41
2022-10-12T13:08:04.402Z,99372.13
2022-10-12T13:13:16.820Z,99372.09
2022-10-12T13:18:45.415Z,99361.16
2022-10-12T13:23:33.081Z,99360.41
2022-10-12T13:28:28.773Z,99345.97
2022-10-12T13:33:32.006Z,99342.91
2022-10-12T13:38:26.739Z,99339.63
2022-10-12T13:43:19.727Z,99330.88
2022-10-12T13:48:33.987Z,99329.50
2022-10-12T13:53:37.476Z,99329.50
2022-10-12T13:58:32.304Z,99326.47
2022-10-12T14:03:26.612Z,99307.88
2022-10-12T14:08:25.417Z,99319.00
2022-10-12T14:13:34.698Z,99301.78
2022-10-12T14:18:39.918Z,99303.94
2022-10-12T14:23:31.665Z,99318.84
2022-10-12T14:28:29.797Z,99308.44
2022-10-12T14:33:24.370Z,99308.63
2022-10-12T14:38:40.415Z,99302.53
2022-10-12T14:43:32.074Z,99300.41
2022-10-12T14:48:24.024Z,99290.69
2022-10-12T14:53:16.260Z,99290.13
2022-10-12T14:58:12.488Z,99287.56
2022-10-12T15:03:05.430Z,99280.97
2022-10-12T15:07:57.015Z,99263.97
2022-10-12T15:12:49.963Z,99263.06
2022-10-12T15:17:41.605Z,99252.59
2022-10-12T15:22:33.304Z,99256.31
2022-10-12T15:27:25.002Z,99238.22
2022-10-12T15:32:18.287Z,99234.94
2022-10-12T15:37:10.416Z,99228.56
2022-10-12T15:42:02.138Z,99231.22
2022-10-12T15:46:54.403Z,99222.81
2022-10-12T15:51:49.247Z,99221.72
2022-10-12T15:56:41.463Z,99211.66
2022-10-12T16:01:35.331Z,99217.94
2022-10-12T16:06:27.508Z,99200.66
2022-10-12T16:11:19.793Z,99194.41
2022-10-12T16:16:12.293Z,99201.41
2022-10-12T16:21:04.242Z,99202.75
2022-10-12T16:25:56.705Z,99198.31
2022-10-12T16:30:49.705Z,99191.59
2022-10-12T16:35:41.805Z,99197.69
2022-10-12T16:40:33.438Z,99190.59
2022-10-12T16:45:25.838Z,99195.13
2022-10-12T16:50:22.904Z,99192.66
2022-10-12T16:55:15.009Z,99174.84
2022-10-12T17:00:13.856Z,99196.28
2022-10-12T17:05:06.509Z,99192.72
2022-10-12T17:10:04.005Z,99194.06
2022-10-12T17:14:55.640Z,99209.06
2022-10-12T17:19:47.511Z,99205.75
2022-10-12T17:24:42.364Z,99209.31
2022-10-12T17:29:39.508Z,99202.22
2022-10-12T17:34:34.258Z,99202.78
2022-10-12T17:39:28.054Z,99210.16
2022-10-12T17:44:19.931Z,99206.94
2022-10-12T17:49:13.747Z,99205.59
2022-10-12T17:54:05.819Z,99209.66
2022-10-12T17:59:00.318Z,99233.66
2022-10-12T18:03:53.135Z,99225.13
2022-10-12T18:08:45.222Z,99223.66
2022-10-12T18:13:38.070Z,99246.84
2022-10-12T18:18:30.337Z,99237.13
2022-10-12T18:23:22.212Z,99263.59
2022-10-12T18:28:14.756Z,99267.72
2022-10-12T18:33:06.444Z,99286.28
2022-10-12T18:37:58.078Z,99280.09
2022-10-12T18:42:49.879Z,99280.47
2022-10-12T18:47:41.551Z,99280.28
2022-10-12T18:52:34.101Z,99276.50
2022-10-12T18:57:30.156Z,99278.25
2022-10-12T19:02:22.989Z,99275.28
2022-10-12T19:07:15.364Z,99281.53
2022-10-12T19:12:08.162Z,99284.44
2022-10-12T19:17:00.912Z,99291.44
2022-10-12T19:21:56.516Z,99300.91
2022-10-12T19:26:49.474Z,99303.06
2022-10-12T19:31:45.088Z,99316.59
2022-10-12T19:36:37.878Z,99293.31
2022-10-12T19:41:30.259Z,99296.53
2022-10-12T19:46:21.944Z,99306.81
2022-10-12T19:51:13.706Z,99293.13
2022-10-12T19:56:08.391Z,99299.28
2022-10-12T20:01:04.845Z,99291.59
2022-10-12T20:05:56.599Z,99297.06
2022-10-12T20:10:48.213Z,99295.16
2022-10-12T20:15:39.750Z,99299.53
2022-10-12T20:20:31.474Z,99297.63
2022-10-12T20:25:23.105Z,99291.94
2022-10-12T20:30:14.854Z,99292.41
2022-10-12T20:35:07.102Z,99298.03
2022-10-12T20:39:58.907Z,99303.13
2022-10-12T20:44:51.026Z,99313.78
2022-10-12T20:49:42.971Z,99317.31
2022-10-12T20:54:36.097Z,99323.81
2022-10-12T20:59:27.835Z,99321.56
2022-10-12T21:04:19.498Z,99334.59
2022-10-12T21:09:17.527Z,99335.09
2022-10-12T21:14:12.897Z,99342.19
2022-10-12T21:19:04.472Z,99339.97
2022-10-12T21:23:58.618Z,99346.31
2022-10-12T21:28:50.997Z,99347.16
2022-10-12T21:33:43.317Z,99335.09
2022-10-12T21:38:35.482Z,99345.97
2022-10-12T21:43:27.134Z,99341.09
2022-10-12T21:48:19.025Z,99332.59
2022-10-12T21:53:10.539Z,99332.13
2022-10-12T21:58:02.158Z,99338.88
2022-10-12T22:02:55.727Z,99328.81
2022-10-12T22:07:47.403Z,99332.03
2022-10-12T22:12:39.291Z,99323.03
2022-10-12T22:17:35.423Z,99328.94
2022-10-12T22:22:27.133Z,99332.38
2022-10-12T22:27:18.702Z,99326.13
2022-10-12T22:32:10.420Z,99346.00
2022-10-12T22:37:02.016Z,99341.03
2022-10-12T22:41:53.889Z,99333.72
2022-10-12T22:46:45.675Z,99332.38
2022-10-12T22:51:41.232Z,99330.75
2022-10-12T22:56:33.181Z,99325.06
2022-10-12T23:01:25.482Z,99322.22
2022-10-12T23:06:18.640Z,99330.06
2022-10-12T23:11:29.493Z,99331.34
2022-10-12T23:16:29.886Z,99336.44
2022-10-12T23:21:21.658Z,99341.78
2022-10-12T23:26:17.994Z,99348.53
2022-10-12T23:31:11.524Z,99354.19
2022-10-12T23:36:07.288Z,99357.38
2022-10-12T23:40:58.886Z,99360.34
2022-10-12T23:45:50.808Z,99364.50
2022-10-12T23:50:42.823Z,99363.66
2022-10-12T23:55:35.219Z,99368.50
